Time;durP1;ratioP1;P1;durP2;ratioP2;P2;SDS_P1;SDS_P2;PMS_P1;PMS_P2;Temp;Humidity;BMP_temperature;BMP_pressure;BME280_temperature;BME280_humidity;BME280_pressure;Samples;Min_cycle;Max_cycle;Signal;HPM_P1;HPM_P2
2023/09/02 00:02:09;;;;;;;8.40;7.27;;;17.10;99.90;;;16.83;87.45;101040.59;5096462;28;20354;-72
2023/09/02 00:04:41;;;;;;;8.23;7.40;;;17.10;99.90;;;16.82;87.24;101039.75;5096356;28;20315;-72
2023/09/02 00:07:13;;;;;;;8.87;7.40;;;17.10;99.90;;;16.80;86.81;101038.28;5096391;28;20280;-72
2023/09/02 00:09:44;;;;;;;8.80;7.90;;;17.10;99.90;;;16.76;87.65;101039.69;5096327;28;20284;-72
2023/09/02 00:12:18;;;;;;;7.93;7.00;;;17.00;99.90;;;16.77;88.06;101044.09;5095902;28;20544;-72
2023/09/02 00:14:49;;;;;;;9.20;7.33;;;17.10;99.90;;;16.78;88.43;101049.28;5095864;28;20744;-72
2023/09/02 00:17:21;;;;;;;7.77;6.97;;;17.10;99.90;;;16.78;87.98;101043.88;5095494;28;20634;-72
2023/09/02 00:19:53;;;;;;;7.40;6.13;;;17.10;99.90;;;16.79;86.99;101047.41;5095846;28;20651;-72
2023/09/02 00:22:25;;;;;;;7.57;6.43;;;17.10;99.90;;;16.82;87.85;101053.28;5096110;28;20189;-73
2023/09/02 00:24:57;;;;;;;7.93;7.13;;;17.20;99.90;;;16.81;88.24;101040.81;5095959;28;20312;-73
2023/09/02 00:27:30;;;;;;;10.47;7.03;;;17.20;99.90;;;16.78;88.31;101046.59;5096019;28;20232;-73
2023/09/02 00:30:02;;;;;;;8.93;6.67;;;17.20;99.90;;;16.79;87.78;101056.38;5095938;28;20193;-72
2023/09/02 00:32:34;;;;;;;8.10;6.53;;;17.10;99.90;;;16.84;88.10;101045.00;5095583;28;20283;-72
2023/09/02 00:35:07;;;;;;;8.13;6.63;;;17.20;99.90;;;16.76;88.19;101054.06;5095792;28;20225;-72
2023/09/02 00:37:39;;;;;;;8.07;6.90;;;17.10;99.90;;;16.74;88.64;101050.72;5095714;28;20304;-72
2023/09/02 00:40:17;;;;;;;9.13;7.50;;;17.00;99.90;;;16.71;88.76;101057.34;5095745;28;20281;-72
2023/09/02 00:42:54;;;;;;;7.23;6.53;;;17.00;99.90;;;16.70;88.66;101052.97;5095715;28;20200;-72
2023/09/02 00:45:26;;;;;;;9.23;6.67;;;17.00;99.90;;;16.71;88.73;101046.53;5095296;28;20256;-73
2023/09/02 00:48:00;;;;;;;9.07;6.60;;;17.00;99.90;;;16.75;87.74;101051.56;5095544;28;20207;-73
2023/09/02 00:50:34;;;;;;;8.40;6.20;;;17.10;99.90;;;16.75;87.52;101052.38;5095542;28;20197;-73
2023/09/02 00:53:06;;;;;;;9.23;6.90;;;17.10;99.90;;;16.79;87.80;101059.06;5095508;28;20604;-72
2023/09/02 00:55:39;;;;;;;9.57;7.17;;;17.90;99.90;;;16.81;88.62;101061.59;5095089;28;20300;-72
2023/09/02 00:58:12;;;;;;;7.57;6.77;;;17.20;99.90;;;16.81;88.56;101056.19;5095326;28;20241;-72
2023/09/02 01:00:45;;;;;;;6.77;6.00;;;17.20;99.90;;;16.81;87.84;101061.59;5095012;28;20636;-72
2023/09/02 01:03:17;;;;;;;7.13;6.33;;;17.10;99.90;;;16.81;88.51;101067.00;5095216;28;20186;-72
2023/09/02 01:05:49;;;;;;;6.77;6.07;;;17.10;99.90;;;16.78;88.29;101064.69;5095228;28;20280;-72
2023/09/02 01:08:21;;;;;;;7.17;6.30;;;17.10;99.90;;;16.72;88.44;101069.84;5094872;28;20625;-72
2023/09/02 01:10:55;;;;;;;6.90;6.13;;;17.10;99.90;;;16.71;88.62;101070.84;5094861;28;20639;-72
2023/09/02 01:13:28;;;;;;;9.47;6.40;;;17.00;99.90;;;16.67;88.33;101069.59;5095043;28;20338;-72
2023/09/02 01:16:00;;;;;;;7.67;6.83;;;17.10;99.90;;;16.67;88.46;101072.28;5094994;28;20189;-72
2023/09/02 01:18:33;;;;;;;10.83;7.77;;;17.00;99.90;;;16.65;88.60;101065.38;5094957;28;20251;-72
2023/09/02 01:21:26;;;;;;;9.73;7.10;;;17.00;99.90;;;16.67;88.07;101060.63;5094995;28;20287;-72
2023/09/02 01:24:27;;;;;;;8.27;7.07;;;17.00;99.90;;;16.66;88.91;101065.19;5094484;28;20801;-72
2023/09/02 01:27:17;;;;;;;11.20;7.43;;;17.00;99.90;;;16.62;88.07;101060.34;5094845;28;20189;-72
2023/09/02 01:30:05;;;;;;;8.13;7.33;;;17.00;99.90;;;16.62;88.99;101057.66;5093792;28;20564;-72
2023/09/02 01:32:43;;;;;;;8.40;6.73;;;17.00;99.90;;;16.64;89.19;101071.84;5094733;28;20280;-71
2023/09/02 01:35:21;;;;;;;8.27;6.47;;;17.00;99.90;;;16.58;89.13;101073.41;5094593;28;20236;-72
2023/09/02 01:37:58;;;;;;;9.03;7.70;;;16.90;99.90;;;16.60;88.40;101078.66;5094551;28;20219;-72
2023/09/02 01:40:33;;;;;;;10.20;7.33;;;16.90;99.90;;;16.60;88.96;101076.78;5094266;28;20658;-72
2023/09/02 01:43:07;;;;;;;9.67;7.70;;;16.90;99.90;;;16.60;88.92;101079.50;5094517;28;20197;-72
2023/09/02 01:45:40;;;;;;;8.63;7.27;;;16.90;99.90;;;16.58;89.24;101078.81;5094451;28;20192;-72
2023/09/02 01:48:13;;;;;;;8.80;7.90;;;16.90;99.90;;;16.55;88.85;101089.16;5094494;28;20279;-72
2023/09/02 01:50:48;;;;;;;8.00;7.07;;;16.80;99.90;;;16.52;88.79;101089.53;5094413;28;20272;-72
2023/09/02 01:53:20;;;;;;;8.07;6.93;;;16.80;99.90;;;16.54;89.50;101092.91;5093976;28;20638;-72
2023/09/02 01:55:53;;;;;;;11.10;7.87;;;16.80;99.90;;;16.52;89.65;101089.53;5093938;28;20217;-72
2023/09/02 01:58:27;;;;;;;9.83;7.57;;;16.80;99.90;;;16.53;89.32;101097.47;5094173;28;20213;-72
2023/09/02 02:01:00;;;;;;;11.00;7.67;;;16.90;99.90;;;16.53;88.45;101105.56;5093892;28;20210;-72
2023/09/02 02:03:38;;;;;;;9.90;7.80;;;17.00;99.90;;;16.49;89.80;101098.03;5094110;28;20224;-72
2023/09/02 02:06:11;;;;;;;8.37;7.47;;;16.80;99.90;;;16.46;89.51;101101.09;5094125;28;20232;-72
2023/09/02 02:08:53;;;;;;;9.43;6.97;;;16.80;99.90;;;16.48;90.30;101093.63;5093787;28;20624;-72
2023/09/02 02:11:28;;;;;;;7.70;6.90;;;16.80;99.90;;;16.47;89.54;101098.19;5094043;28;20189;-72
2023/09/02 02:14:07;;;;;;;9.00;7.10;;;16.80;99.90;;;16.51;89.42;101099.50;5093974;28;20228;-72
2023/09/02 02:16:39;;;;;;;10.63;7.40;;;16.80;99.90;;;16.50;89.43;101095.16;5093958;28;20199;-71
2023/09/02 02:19:11;;;;;;;7.53;6.87;;;16.80;99.90;;;16.49;89.66;101104.28;5093888;28;20274;-71
2023/09/02 02:21:43;;;;;;;9.17;7.47;;;16.90;99.90;;;16.49;88.54;101112.38;5093922;28;20258;-71
2023/09/02 02:24:15;;;;;;;7.70;6.93;;;16.80;99.90;;;16.52;88.77;101116.56;5093508;28;20220;-72
2023/09/02 02:26:47;;;;;;;8.43;7.00;;;16.90;99.90;;;16.49;88.78;101111.53;5093857;28;20298;-72
2023/09/02 02:29:20;;;;;;;7.73;6.93;;;16.80;99.90;;;16.50;89.80;101110.53;5093809;28;20185;-72
2023/09/02 02:31:52;;;;;;;8.07;6.90;;;16.90;99.90;;;16.51;89.75;101106.78;5093781;28;20211;-72
2023/09/02 02:34:25;;;;;;;10.53;7.50;;;16.80;99.90;;;16.50;90.13;101113.22;5093699;28;20224;-72
2023/09/02 02:36:57;;;;;;;9.63;7.53;;;16.90;99.90;;;16.50;90.43;101111.38;5093711;28;20283;-72
2023/09/02 02:39:29;;;;;;;8.70;7.80;;;16.80;99.90;;;16.49;89.79;101117.78;5093544;28;20208;-72
2023/09/02 02:42:01;;;;;;;10.03;7.83;;;16.80;99.90;;;16.48;89.90;101116.09;5093656;28;20220;-72
2023/09/02 02:44:35;;;;;;;9.03;7.80;;;16.80;99.90;;;16.48;89.14;101126.06;5093248;28;20595;-72
2023/09/02 02:47:08;;;;;;;8.17;7.37;;;16.80;99.90;;;16.47;90.11;101130.63;5093531;28;20193;-72
2023/09/02 02:49:41;;;;;;;8.63;7.63;;;16.80;99.90;;;16.45;89.47;101132.69;5093579;28;20184;-72
2023/09/02 02:52:13;;;;;;;10.27;8.13;;;16.80;99.90;;;16.42;89.29;101129.53;5093228;28;20189;-72
2023/09/02 02:54:45;;;;;;;9.60;7.67;;;16.80;99.90;;;16.39;89.36;101128.06;5093139;28;20232;-72
2023/09/02 02:57:17;;;;;;;8.50;7.77;;;16.80;99.90;;;16.40;89.57;101129.75;5093418;28;20228;-72
2023/09/02 02:59:53;;;;;;;8.70;7.90;;;16.80;99.90;;;16.40;89.90;101134.31;5093445;28;20283;-72
2023/09/02 03:02:25;;;;;;;9.23;8.33;;;16.70;99.90;;;16.40;90.54;101139.72;5093503;28;20224;-72
2023/09/02 03:04:57;;;;;;;10.47;9.03;;;16.80;99.90;;;16.39;90.33;101140.72;5093354;28;20234;-72
2023/09/02 03:07:29;;;;;;;10.30;9.30;;;16.70;99.90;;;16.36;90.54;101143.81;5093118;28;20236;-72
2023/09/02 03:10:01;;;;;;;8.97;8.00;;;16.70;99.90;;;16.32;90.41;101137.94;5093074;28;20639;-72
2023/09/02 03:12:33;;;;;;;8.83;7.93;;;16.70;99.90;;;16.30;90.49;101136.47;5093427;28;20213;-72
2023/09/02 03:15:07;;;;;;;8.73;7.90;;;16.60;99.90;;;16.32;91.52;101137.94;5092946;28;20260;-72
2023/09/02 03:17:39;;;;;;;8.93;7.87;;;16.70;99.90;;;16.32;91.11;101142.50;5093249;28;20276;-72
2023/09/02 03:20:13;;;;;;;8.53;7.70;;;16.60;99.90;;;16.30;91.12;101142.66;5093308;28;20189;-72
2023/09/02 03:22:45;;;;;;;8.47;7.50;;;16.60;99.90;;;16.30;90.04;101134.56;5093278;28;20210;-72
2023/09/02 03:25:17;;;;;;;10.57;8.03;;;16.70;99.90;;;16.28;91.12;101141.19;5092826;28;20319;-72
2023/09/02 03:27:48;;;;;;;9.17;6.90;;;16.60;99.90;;;16.28;91.63;101136.63;5093222;28;20272;-72
2023/09/02 03:30:22;;;;;;;11.20;7.23;;;16.60;99.90;;;16.28;90.55;101138.50;5093210;28;20231;-72
2023/09/02 03:32:54;;;;;;;8.63;7.67;;;16.60;99.90;;;16.27;90.41;101134.94;5093208;28;20280;-72
2023/09/02 03:35:27;;;;;;;8.43;7.67;;;16.60;99.90;;;16.24;90.12;101135.31;5094162;28;20278;-72
2023/09/02 03:37:58;;;;;;;8.67;7.77;;;16.70;99.90;;;16.22;91.32;101137.38;5093111;28;20300;-72
2023/09/02 03:40:31;;;;;;;10.40;7.30;;;16.60;99.90;;;16.25;91.15;101137.00;5093135;28;20618;-72
2023/09/02 03:43:03;;;;;;;8.27;6.77;;;16.60;99.90;;;16.23;90.60;101141.78;5093085;28;20189;-72
2023/09/02 03:45:39;;;;;;;7.33;6.63;;;16.60;99.90;;;16.23;90.78;101133.69;5092716;28;20227;-72
2023/09/02 03:48:10;;;;;;;7.70;6.83;;;16.70;99.90;;;16.25;90.77;101134.31;5093047;28;20185;-72
2023/09/02 03:51:05;;;;;;;7.13;6.50;;;16.60;99.90;;;16.26;91.64;101138.69;5092716;28;20200;-72
2023/09/02 03:53:39;;;;;;;7.90;7.07;;;16.60;99.90;;;16.19;92.25;101145.88;5096058;28;20431;-72
2023/09/02 03:56:10;;;;;;;10.80;6.57;;;16.50;99.90;;;16.14;92.85;101149.13;5096681;28;20246;-72
2023/09/02 03:58:42;;;;;;;8.47;7.37;;;16.40;99.90;;;16.14;92.29;101148.28;5096478;28;20244;-72
2023/09/02 04:01:16;;;;;;;6.90;6.23;;;16.50;99.90;;;16.14;91.97;101143.72;5096556;28;20272;-72
2023/09/02 04:03:48;;;;;;;6.70;6.10;;;16.40;99.90;;;16.15;92.38;101141.88;5096459;28;20232;-72
2023/09/02 04:06:19;;;;;;;6.53;5.97;;;16.50;99.90;;;16.14;91.68;101140.19;5096461;28;20193;-72
2023/09/02 04:08:51;;;;;;;6.37;5.77;;;16.50;99.90;;;16.16;92.60;101138.16;5096399;28;20273;-72
2023/09/02 04:11:24;;;;;;;6.83;6.20;;;16.50;99.90;;;16.19;90.95;101140.47;5096359;28;20288;-72
2023/09/02 04:13:56;;;;;;;7.13;6.03;;;16.60;99.90;;;16.18;91.87;101142.31;5096234;28;20260;-72
2023/09/02 04:16:29;;;;;;;6.83;5.90;;;16.60;99.90;;;16.19;91.75;101143.16;5095939;28;20565;-72
2023/09/02 04:19:02;;;;;;;6.83;5.53;;;16.50;99.90;;;16.20;90.36;101151.06;5095776;28;20208;-72
2023/09/02 04:21:34;;;;;;;7.87;6.00;;;16.70;99.90;;;16.21;91.43;101151.91;5096141;28;20196;-72
2023/09/02 04:24:06;;;;;;;7.07;6.43;;;16.70;99.90;;;16.15;91.72;101141.88;5096027;28;20224;-72
2023/09/02 04:26:38;;;;;;;6.87;6.17;;;16.50;99.90;;;16.17;91.79;101151.44;5096045;28;20189;-72
2023/09/02 04:29:10;;;;;;;9.70;6.00;;;16.50;99.90;;;16.18;91.67;101155.00;5096032;28;20189;-72
2023/09/02 04:31:43;;;;;;;7.60;6.20;;;16.60;99.90;;;16.16;91.12;101154.34;5095629;28;20273;-72
2023/09/02 04:34:15;;;;;;;8.40;6.47;;;16.60;99.90;;;16.15;92.33;101160.78;5095864;28;20228;-72
2023/09/02 04:36:47;;;;;;;7.30;5.67;;;16.50;99.90;;;16.14;91.41;101162.63;5095875;28;20278;-72
2023/09/02 04:39:19;;;;;;;6.10;5.60;;;16.50;99.90;;;16.17;91.65;101164.13;5095752;28;20213;-72
2023/09/02 04:41:51;;;;;;;7.57;6.33;;;16.50;99.90;;;16.16;91.00;101160.56;5095421;28;20661;-72
2023/09/02 04:44:23;;;;;;;7.30;6.60;;;16.60;99.90;;;16.17;91.37;101164.97;5095624;28;20225;-72
2023/09/02 04:46:56;;;;;;;6.57;5.93;;;16.50;99.90;;;16.18;91.19;101173.91;5095683;28;20188;-72
2023/09/02 04:49:28;;;;;;;6.70;6.10;;;16.50;99.90;;;16.17;91.89;101183.03;5095340;28;20195;-72
2023/09/02 04:52:00;;;;;;;8.70;6.67;;;16.50;99.90;;;16.17;91.81;101185.72;5095584;28;20193;-72
2023/09/02 04:54:32;;;;;;;6.43;5.83;;;16.50;99.90;;;16.16;91.92;101194.88;5095189;28;20233;-72
2023/09/02 04:57:04;;;;;;;7.03;6.33;;;16.50;99.90;;;16.16;91.44;101197.56;5095441;28;20213;-72
2023/09/02 04:59:36;;;;;;;7.67;6.50;;;16.50;99.90;;;16.13;91.75;101196.06;5095274;28;20256;-72
2023/09/02 05:02:09;;;;;;;7.00;6.40;;;16.50;99.90;;;16.11;92.37;101206.22;5095310;28;20276;-72
2023/09/02 05:04:41;;;;;;;6.43;5.90;;;16.40;99.90;;;16.11;92.27;101202.69;5093836;28;20710;-72
2023/09/02 05:07:13;;;;;;;9.40;6.53;;;16.40;99.90;;;16.11;92.17;101205.38;5094973;28;20719;-72
2023/09/02 05:09:45;;;;;;;6.60;5.93;;;16.50;99.90;;;16.11;91.25;101205.38;5094911;28;20196;-72
2023/09/02 05:12:17;;;;;;;7.67;7.07;;;16.50;99.90;;;16.05;92.43;101206.13;5094868;28;20631;-72
2023/09/02 05:14:49;;;;;;;7.60;6.83;;;16.40;99.90;;;16.06;92.26;101213.22;5095278;28;20317;-72
2023/09/02 05:17:22;;;;;;;7.47;6.80;;;16.40;99.90;;;16.06;93.19;101211.31;5095027;28;20268;-72
2023/09/02 05:19:54;;;;;;;8.50;7.10;;;16.50;99.90;;;16.10;92.67;101211.78;5094622;28;20616;-72
2023/09/02 05:22:26;;;;;;;7.13;6.53;;;16.50;99.90;;;16.13;92.67;101219.56;5095368;28;20214;-72
2023/09/02 05:24:58;;;;;;;9.40;7.07;;;16.50;99.90;;;16.12;92.01;101204.38;5094840;28;20408;-72
2023/09/02 05:27:32;;;;;;;7.63;6.53;;;16.50;99.90;;;16.15;92.58;101209.41;5094841;28;20225;-72
2023/09/02 05:30:04;;;;;;;8.30;7.50;;;16.50;99.90;;;16.11;92.02;101210.78;5094489;28;20625;-72
2023/09/02 05:32:37;;;;;;;7.97;7.27;;;16.50;99.90;;;16.10;93.28;101217.19;5094742;28;20185;-72
2023/09/02 05:35:10;;;;;;;8.20;7.40;;;16.40;99.90;;;16.05;93.22;101217.78;5094296;28;20745;-72
2023/09/02 05:37:42;;;;;;;7.80;7.10;;;16.50;99.90;;;16.05;92.94;101222.34;5094653;28;20229;-72
2023/09/02 05:40:15;;;;;;;7.80;7.10;;;16.40;99.90;;;16.00;92.90;101222.88;5094541;28;20296;-72
2023/09/02 05:42:47;;;;;;;7.17;6.47;;;16.30;99.90;;;16.03;92.53;101235.16;5094562;28;20193;-72
2023/09/02 05:45:18;;;;;;;7.50;6.90;;;16.40;99.90;;;16.04;92.88;101236.84;5094438;28;20228;-72
2023/09/02 05:47:51;;;;;;;8.93;7.33;;;16.40;99.90;;;15.97;92.54;101242.16;5094467;28;20276;-72
2023/09/02 05:50:23;;;;;;;8.87;7.43;;;16.40;99.90;;;15.96;93.20;101245.06;5094431;28;20189;-72
2023/09/02 05:52:55;;;;;;;7.47;6.80;;;16.30;99.90;;;15.98;93.45;101243.00;5094395;28;20216;-72
2023/09/02 05:55:27;;;;;;;6.60;6.00;;;16.30;99.90;;;16.02;92.84;101244.31;5093800;28;20721;-72
2023/09/02 05:57:59;;;;;;;7.67;6.90;;;16.50;99.90;;;16.02;92.54;101238.91;5094304;28;20199;-72
2023/09/02 06:00:31;;;;;;;7.30;6.70;;;16.40;99.90;;;16.06;92.66;101242.94;5094227;28;20212;-72
2023/09/02 06:03:05;;;;;;;8.60;6.77;;;16.40;99.90;;;16.07;92.34;101233.78;5093935;28;20267;-72
2023/09/02 06:05:37;;;;;;;7.73;6.87;;;16.50;99.90;;;16.08;92.53;101239.00;5093891;28;20738;-72
2023/09/02 06:08:09;;;;;;;7.50;6.80;;;16.50;99.90;;;16.09;91.34;101245.25;5094159;28;20220;-72
2023/09/02 06:10:43;;;;;;;7.73;7.03;;;16.50;99.90;;;16.11;91.77;101248.59;5094092;28;20228;-72
2023/09/02 06:13:15;;;;;;;7.70;7.00;;;16.50;99.90;;;16.12;92.09;101244.88;5093977;28;20236;-72
2023/09/02 06:15:47;;;;;;;7.00;6.40;;;16.50;99.90;;;16.14;91.63;101248.22;5093709;28;20189;-72
2023/09/02 06:18:20;;;;;;;7.60;6.90;;;16.50;99.90;;;16.12;92.61;101250.28;5093982;28;20189;-72
2023/09/02 06:20:52;;;;;;;7.53;6.90;;;16.50;99.90;;;16.12;92.39;101250.28;5093840;28;20205;-72
2023/09/02 06:23:25;;;;;;;7.43;6.83;;;16.50;99.90;;;16.16;92.56;101259.72;5094710;28;20193;-72
2023/09/02 06:26:01;;;;;;;7.40;6.70;;;16.50;99.90;;;16.17;92.70;101261.38;5093884;28;20375;-72
2023/09/02 06:28:33;;;;;;;7.73;7.07;;;16.60;99.90;;;16.19;92.21;101262.03;5093818;28;20189;-72
2023/09/02 06:31:10;;;;;;;8.07;7.27;;;16.60;99.90;;;16.19;92.12;101264.75;5093810;28;20219;-72
2023/09/02 06:33:44;;;;;;;8.87;7.97;;;16.60;99.90;;;16.20;92.88;101263.69;5093629;28;20232;-72
2023/09/02 06:36:18;;;;;;;7.33;6.73;;;16.70;99.90;;;16.22;92.59;101265.22;5093743;28;20213;-72
2023/09/02 06:38:51;;;;;;;8.40;7.60;;;16.60;99.90;;;16.25;92.59;101272.09;5093710;28;20246;-72
2023/09/02 06:41:23;;;;;;;8.73;7.83;;;16.80;99.90;;;16.25;92.64;101266.69;5093553;28;20296;-72
2023/09/02 06:43:54;;;;;;;7.93;7.17;;;16.70;99.90;;;16.28;92.40;101260.06;5093586;28;20228;-72
2023/09/02 06:46:27;;;;;;;9.30;8.50;;;16.70;99.90;;;16.31;93.06;101260.53;5093294;28;20714;-72
2023/09/02 06:49:00;;;;;;;9.40;8.50;;;16.70;99.90;;;16.34;92.25;101265.56;5093294;28;20635;-72
2023/09/02 06:51:32;;;;;;;8.93;8.13;;;16.80;99.90;;;16.36;92.98;101271.66;5093227;28;20217;-72
2023/09/02 06:54:04;;;;;;;10.73;9.70;;;16.80;99.90;;;16.40;92.65;101270.25;5093205;28;20268;-72
2023/09/02 06:56:36;;;;;;;8.83;7.90;;;16.90;99.90;;;16.41;91.53;101258.41;5093170;28;20284;-72
2023/09/02 06:59:08;;;;;;;10.83;9.77;;;16.90;99.90;;;16.44;91.27;101271.56;5093218;28;20283;-72
2023/09/02 07:01:40;;;;;;;10.50;9.50;;;16.90;99.90;;;16.46;91.72;101274.91;5093379;28;20296;-72
2023/09/02 07:04:13;;;;;;;11.00;9.93;;;16.90;99.90;;;16.50;92.77;101281.66;5093409;28;20319;-72
2023/09/02 07:06:45;;;;;;;10.07;9.07;;;17.00;99.90;;;16.50;92.45;101278.94;5093443;28;20276;-72
2023/09/02 07:09:17;;;;;;;8.03;7.23;;;17.00;99.90;;;16.52;92.81;101279.56;5093398;28;20314;-72
2023/09/02 07:11:49;;;;;;;12.80;11.70;;;17.00;99.90;;;16.57;92.74;101285.31;5093076;28;20276;-72
2023/09/02 07:14:21;;;;;;;12.30;11.10;;;17.00;99.90;;;16.61;92.08;101277.66;5093280;28;20233;-72
2023/09/02 07:16:54;;;;;;;13.53;12.13;;;17.10;99.90;;;16.64;92.22;101278.09;5093334;28;20185;-72
2023/09/02 07:19:27;;;;;;;13.00;11.73;;;17.10;99.90;;;16.67;92.36;101272.34;5093266;28;20193;-72
2023/09/02 07:22:01;;;;;;;16.10;12.63;;;17.20;99.90;;;16.70;92.28;101271.97;5092865;28;20244;-72
2023/09/02 07:24:32;;;;;;;15.27;13.03;;;17.20;99.90;;;16.73;92.22;101285.13;5092859;28;20307;-72
2023/09/02 07:27:05;;;;;;;15.00;13.60;;;17.20;99.90;;;16.77;92.41;101301.81;5094215;28;20189;-72
2023/09/02 07:29:36;;;;;;;17.87;16.07;;;17.30;99.90;;;16.81;91.91;101288.75;5097182;28;20558;-72
2023/09/02 07:32:07;;;;;;;17.97;16.23;;;17.30;99.90;;;16.85;92.42;101295.47;5097045;28;20583;-72
2023/09/02 07:34:41;;;;;;;18.00;16.20;;;17.30;99.90;;;16.88;91.92;101292.38;5096965;28;20676;-72
2023/09/02 07:37:13;;;;;;;20.80;18.63;;;17.40;99.90;;;16.91;91.78;101295.56;5096952;28;20263;-72
2023/09/02 07:39:45;;;;;;;21.50;19.23;;;17.40;99.90;;;16.95;90.94;101296.03;5096639;28;20665;-72
2023/09/02 07:42:16;;;;;;;22.27;19.87;;;17.50;99.90;;;16.97;91.29;101300.22;5096572;28;20670;-72
2023/09/02 07:44:48;;;;;;;19.37;17.47;;;17.50;99.90;;;16.99;91.24;101308.97;5096750;28;20260;-72
2023/09/02 07:47:20;;;;;;;18.57;16.50;;;17.50;99.90;;;17.03;91.04;101314.84;5096504;28;20292;-72
2023/09/02 07:49:55;;;;;;;21.03;18.63;;;17.50;99.90;;;17.06;91.08;101312.59;5096777;28;20280;-72
2023/09/02 07:52:27;;;;;;;21.40;19.20;;;17.60;99.90;;;17.13;91.21;101324.34;5096735;28;20287;-72
2023/09/02 07:54:59;;;;;;;18.77;16.77;;;17.60;99.90;;;17.20;90.34;101316.31;5096351;28;20301;-72
2023/09/02 07:57:30;;;;;;;20.77;18.07;;;17.70;99.90;;;17.27;90.39;101322.63;5096650;28;20277;-72
2023/09/02 08:00:03;;;;;;;20.07;17.80;;;17.80;99.90;;;17.34;90.59;101328.97;5096520;28;20330;-72
2023/09/02 08:02:35;;;;;;;21.93;18.73;;;17.90;99.90;;;17.39;88.67;101329.25;5096487;28;20192;-72
2023/09/02 08:05:10;;;;;;;21.33;18.53;;;17.90;99.90;;;17.44;87.09;101332.22;5096391;28;20224;-72
2023/09/02 08:07:42;;;;;;;20.17;18.17;;;18.00;99.90;;;17.51;87.76;101335.00;5096444;28;20288;-72
2023/09/02 08:10:16;;;;;;;19.87;17.80;;;18.00;99.90;;;17.49;86.92;101337.91;5096061;28;20283;-72
2023/09/02 08:12:48;;;;;;;18.73;16.63;;;18.00;99.90;;;17.54;88.16;101343.56;5096330;28;20200;-72
2023/09/02 08:15:21;;;;;;;19.03;16.57;;;18.00;99.90;;;17.55;87.56;101337.13;5095905;28;20315;-72
2023/09/02 08:17:54;;;;;;;16.27;14.67;;;18.00;99.90;;;17.58;88.36;101339.50;5095935;28;20647;-72
2023/09/02 08:20:30;;;;;;;17.27;15.53;;;18.10;99.90;;;17.62;88.30;101348.06;5095760;28;20635;-72
2023/09/02 08:23:01;;;;;;;15.30;13.70;;;18.10;99.90;;;17.63;87.29;101345.19;5096151;28;20191;-72
2023/09/02 08:25:33;;;;;;;15.73;14.13;;;18.10;99.90;;;17.65;87.00;101353.94;5095742;28;20280;-72
2023/09/02 08:28:06;;;;;;;16.80;14.40;;;18.10;99.90;;;17.67;86.51;101356.47;5096052;28;20221;-72
2023/09/02 08:30:42;;;;;;;15.03;13.57;;;18.10;99.90;;;17.70;86.66;101362.34;5096028;28;20216;-72
2023/09/02 08:33:14;;;;;;;14.53;13.03;;;18.20;99.90;;;17.69;85.99;101371.50;5095854;28;20231;-72
2023/09/02 08:35:47;;;;;;;14.47;13.07;;;18.20;99.90;;;17.68;85.23;101369.81;5095835;28;20185;-72
2023/09/02 08:38:19;;;;;;;13.33;12.03;;;18.20;99.90;;;17.72;85.68;101370.25;5096081;28;20265;-72
2023/09/02 08:40:53;;;;;;;11.47;10.33;;;18.20;99.90;;;17.74;85.50;101368.19;5095373;28;20295;-72
2023/09/02 08:43:29;;;;;;;12.47;11.17;;;18.20;99.90;;;17.82;85.67;101375.34;5095317;28;20221;-73
2023/09/02 08:46:08;;;;;;;14.03;12.47;;;18.30;99.90;;;17.86;84.88;101387.50;5095705;28;20196;-73
2023/09/02 08:48:45;;;;;;;14.63;12.20;;;18.30;99.90;;;17.95;84.48;101380.91;5095655;28;20211;-74
2023/09/02 08:51:19;;;;;;;12.73;11.47;;;18.40;99.90;;;18.02;84.98;101381.81;5095378;28;20280;-74
2023/09/02 08:53:52;;;;;;;12.10;10.73;;;18.50;99.90;;;18.09;85.08;101393.56;5095210;28;20224;-74
2023/09/02 08:56:27;;;;;;;12.00;10.70;;;18.60;99.90;;;18.19;84.59;101385.94;5095047;28;20188;-74
2023/09/02 08:58:59;;;;;;;11.80;10.70;;;18.70;99.90;;;18.22;83.39;101382.84;5093979;28;20219;-74
2023/09/02 09:01:34;;;;;;;10.33;9.33;;;18.70;99.90;;;18.30;84.49;101387.31;5095351;28;20641;-74
2023/09/02 09:04:08;;;;;;;11.17;10.07;;;18.80;99.90;;;18.35;84.53;101388.41;5095295;28;20251;-74
2023/09/02 09:06:43;;;;;;;10.93;9.07;;;18.90;99.90;;;18.47;84.34;101386.84;5094993;28;20280;-74
2023/09/02 09:09:19;;;;;;;9.90;8.43;;;19.00;99.90;;;18.54;84.32;101387.75;5095240;28;20189;-74
2023/09/02 09:11:53;;;;;;;10.30;9.40;;;19.10;99.90;;;18.61;84.18;101387.81;5095238;28;20220;-74
2023/09/02 09:14:27;;;;;;;10.40;9.37;;;19.20;99.90;;;18.66;81.71;101397.03;5094779;28;20636;-74
2023/09/02 09:17:02;;;;;;;9.77;8.83;;;19.20;99.90;;;18.70;82.52;101395.59;5095116;28;20191;-74
2023/09/02 09:19:34;;;;;;;11.33;9.03;;;19.20;99.90;;;18.72;81.00;101396.25;5095104;28;20197;-74
2023/09/02 09:22:07;;;;;;;9.47;8.50;;;19.20;99.90;;;18.74;82.03;101399.59;5094908;28;20299;-74
2023/09/02 09:24:39;;;;;;;10.03;9.10;;;19.20;99.90;;;18.72;79.93;101407.09;5094621;28;20677;-74
2023/09/02 09:27:11;;;;;;;8.90;8.10;;;19.20;99.90;;;18.77;81.42;101400.25;5094928;28;20650;-75
2023/09/02 09:29:45;;;;;;;8.87;7.83;;;19.20;99.90;;;18.78;82.22;101410.88;5094833;28;20287;-74
2023/09/02 09:32:22;;;;;;;10.60;9.10;;;19.30;99.90;;;18.78;80.14;101407.34;5094863;28;20281;-74
2023/09/02 09:34:53;;;;;;;9.37;8.50;;;19.20;99.90;;;18.81;80.28;101410.50;5094630;28;20224;-74
2023/09/02 09:37:27;;;;;;;9.17;7.87;;;19.30;99.90;;;18.85;80.96;101416.34;5094734;28;20200;-74
2023/09/02 09:40:01;;;;;;;8.80;8.00;;;19.30;99.90;;;18.84;81.48;101417.38;5094751;28;20285;-74
2023/09/02 09:42:38;;;;;;;11.23;8.90;;;19.30;99.90;;;18.86;80.67;101418.03;5094509;28;20254;-74
2023/09/02 09:45:11;;;;;;;9.30;8.27;;;19.30;99.90;;;18.90;80.52;101419.34;5095072;28;20256;-73
2023/09/02 09:47:46;;;;;;;11.20;10.10;;;19.30;99.90;;;18.89;80.24;101426.63;5095056;28;20710;-74
2023/09/02 09:50:20;;;;;;;10.40;9.30;;;19.30;99.90;;;18.91;81.03;101429.97;5094104;28;20292;-75
2023/09/02 09:53:05;;;;;;;11.27;10.10;;;19.30;99.90;;;18.97;80.65;101420.22;5094522;28;20185;-74
2023/09/02 09:55:37;;;;;;;10.43;9.53;;;19.40;99.90;;;19.00;80.66;101425.25;5093991;28;20629;-74
2023/09/02 09:58:09;;;;;;;8.50;7.70;;;19.40;99.90;;;19.04;80.46;101421.09;5094020;28;20285;-75
2023/09/02 10:00:41;;;;;;;10.50;8.33;;;19.50;99.90;;;19.06;80.91;101429.88;5093929;28;20528;-75
2023/09/02 10:03:13;;;;;;;10.93;9.83;;;19.50;99.90;;;19.07;80.62;101428.84;5094058;28;20240;-74
2023/09/02 10:05:45;;;;;;;9.67;8.77;;;19.50;99.90;;;19.09;79.98;101427.59;5094917;28;20192;-74
2023/09/02 10:08:18;;;;;;;10.90;9.90;;;19.50;99.90;;;19.12;79.64;101423.63;5094238;28;20543;-75
2023/09/02 10:10:51;;;;;;;7.93;7.23;;;19.50;99.90;;;19.15;80.14;101429.50;5094124;28;20193;-75
2023/09/02 10:13:24;;;;;;;14.73;13.13;;;19.50;99.90;;;19.20;80.15;101429.75;5093713;28;20276;-74
2023/09/02 10:15:56;;;;;;;10.73;9.37;;;19.60;99.90;;;19.26;79.22;101438.97;5094160;28;20239;-74
2023/09/02 10:18:29;;;;;;;9.83;8.97;;;19.70;99.90;;;19.29;77.43;101437.72;5093355;28;20212;-73
2023/09/02 10:21:04;;;;;;;8.37;7.60;;;19.70;99.90;;;19.35;77.28;101439.66;5093255;28;20723;-74
2023/09/02 10:23:41;;;;;;;7.70;6.53;;;19.80;99.90;;;19.38;76.03;101445.53;5093616;28;20235;-74
2023/09/02 10:26:19;;;;;;;11.67;7.70;;;19.80;99.90;;;19.43;76.53;101440.34;5094022;28;20195;-74
2023/09/02 10:28:54;;;;;;;8.60;7.80;;;19.90;99.90;;;19.45;75.18;101446.41;5093850;28;20243;-74
2023/09/02 10:31:38;;;;;;;44.13;15.23;;;19.90;99.90;;;19.49;77.17;101442.25;5093822;28;20275;-74
2023/09/02 10:34:19;;;;;;;15.30;9.57;;;19.90;99.90;;;19.51;77.40;101445.63;5093771;28;20269;-74
2023/09/02 10:37:00;;;;;;;13.07;8.17;;;19.90;99.90;;;19.51;77.38;101440.19;5093789;28;20189;-74